Impacts TAF Board INFO
FOR SITUATIONAL AWARENESS. NOT TO BE USED FOR FLIGHT PLANNING PURPOSES.
IDs:

KSFO - San Francisco Intl, CA, US

Issued at 0900 UTC 11 Dec 2017
Updated at 1112 UTC 11 Dec 2017
Potential Impact None Slight Moderate High
Time1056Z 11/12Z 11/13Z 11/14Z 11/15Z 11/16Z 11/17Z 11/18Z 11/19Z 11/20Z 11/21Z 11/22Z 11/23Z 12/00Z>>
Type OBS PRVL PRVL PRVL PRVL PRVL PRVL PRVL PRVL PRVL PRVL PRVL PRVL PRVL
VIS 10 >6 >6 >6 >6 >6 >6 >6 >6 >6 >6 >6 >6 >6
CIG -- -- -- -- -- -- -- -- -- -- -- -- -- --
Cover SCT FEW FEW FEW FEW FEW FEW FEW FEW FEW FEW FEW FEW FEW
FltCat VFR VFR VFR VFR VFR VFR VFR VFR VFR VFR VFR VFR VFR VFR
WX -- -- -- -- -- -- -- -- -- -- -- -- -- --
WDir VRB 170 170 170 170 170 170 170 170 50 50 50 50 50
WSpd 0 4 4 4 4 4 4 4 4 3 3 3 3 3
WGst -- -- -- -- -- -- -- -- -- -- -- -- -- --

Raw TAF
KSFO 110900Z 1109/1212 17004KT P6SM FEW200
  FM112000 05003KT P6SM FEW200
  FM120100 34006KT P6SM SCT200
  FM120500 VRB03KT P6SM FEW200


Raw METAR
KSFO 111056Z 00000KT 10SM SCT200 09/02 A3026 RMK AO2 SLP246 T00890017
KSFO 110956Z 16004KT 10SM SCT200 08/02 A3025 RMK AO2 SLP244 T00830022
KSFO 110856Z 17003KT 10SM FEW200 09/02 A3024 RMK AO2 SLP241 T00890022 51006

METAR Board
Radar Display
Forecast Discussion

FOR SITUATIONAL AWARENESS. NOT TO BE USED FOR FLIGHT PLANNING PURPOSES.